Flugplatz Heide-Büsum

Für EDXB sind keine METAR/TAF Berichte vorhanden.
Es werden die Flugwettermeldungen vom Flugplatz Hohn Airport in 44 km Entfernung angezeigt.

Bericht für ETNH

vom 21.07. um 20:20 UTC

Wind 5 kt aus 260°

Sichtweite 10 km oder mehr

gering bewölkt in 1500 ft

aufgelockert bewölkt in 2500 ft

aufgebrochene Bewölkung in 4000 ft

Temperatur 16.0°C

Taupunkt 14.0°C

Luftfeuchtigkeit 88%

Luftdruck 1021 hPa

ETNH 212020Z 26005KT 9999 FEW015 SCT025 BKN040 16/14 Q1021 BLU

Prognose für ETNH

vom 21.07. um 00:00 UTC

Zwischen 00:00 UTC und 00:00 UTC

Wind 15 kt aus 250° in Böen 25 kt

Sichtweite 10 km oder mehr

keine signifikanten Wettererscheinungen

aufgelockert bewölkt in 2000 ft

aufgebrochene Bewölkung in 22000 ft


Zwischen 00:00 UTC und 00:00 UTC zeitweise

Wind 10 kt aus 280°

Sichtweite 10 km oder mehr

keine signifikanten Wettererscheinungen

gering bewölkt in 1500 ft

aufgebrochene Bewölkung in 2000 ft


Zwischen 00:00 und 00:00 UTC übergehend zu

Wind 8 kt aus 220°

Sichtweite 10 km oder mehr

keine signifikanten Wettererscheinungen

gering bewölkt in 20000 ft

TAF ETNH 211610Z 2117/2205 25015G25KT 9999 NSW SCT020 BKN220 TEMPO 2117/2121 28010KT 9999 NSW FEW015 BKN020 BECMG 2119/2121 22008KT 9999 NSW FEW200 BY ETGL
Impressum